Time;durP1;ratioP1;P1;durP2;ratioP2;P2;SDS_P1;SDS_P2;PMS_P1;PMS_P2;Temp;Humidity;BMP_temperature;BMP_pressure;BME280_temperature;BME280_humidity;BME280_pressure;Samples;Min_cycle;Max_cycle;Signal;HPM_P1;HPM_P2
2020/12/05 00:00:49;;;;;;;;;;;;;;;-0.47;100.00;90544.88;1060946;56;20173;-83
2020/12/05 00:01:50;;;;;;;;;;;;;;;-0.48;100.00;90546.00;1061130;56;20220;-83
2020/12/05 00:02:50;;;;;;;;;;;;;;;-0.51;100.00;90543.06;1063751;55;20138;-83
2020/12/05 00:03:52;;;;;;;;;;;;;;;-0.53;100.00;90542.00;1067422;55;20165;-83
2020/12/05 00:04:52;;;;;;;;;;;;;;;-0.55;100.00;90547.66;1067480;55;20982;-83
2020/12/05 00:05:53;;;;;;;;;;;;;;;-0.54;100.00;90548.41;1065293;55;20180;-82
2020/12/05 00:06:55;;;;;;;;;;;;;;;-0.52;100.00;90546.84;1063044;56;20185;-83
2020/12/05 00:07:55;;;;;;;;;;;;;;;-0.53;100.00;90553.25;1060946;56;20170;-83
2020/12/05 00:08:55;;;;;;;;;;;;;;;-0.56;100.00;90537.59;1061832;56;20170;-84
2020/12/05 00:09:56;;;;;;;;;;;;;;;-0.58;100.00;90534.63;1063190;56;20684;-82
2020/12/05 00:10:56;;;;;;;;;;;;;;;-0.53;100.00;90542.75;1061083;56;20161;-84
2020/12/05 00:11:57;;;;;;;;;;;;;;;-0.52;100.00;90536.34;1063106;56;20283;-84
2020/12/05 00:12:57;;;;;;;;;;;;;;;-0.53;100.00;90545.38;1065368;55;20594;-83
2020/12/05 00:13:58;;;;;;;;;;;;;;;-0.56;100.00;90543.56;1065594;55;20196;-83
2020/12/05 00:14:58;;;;;;;;;;;;;;;-0.47;100.00;90553.50;1065383;55;20180;-86
2020/12/05 00:15:59;;;;;;;;;;;;;;;-0.46;100.00;90548.97;1063121;56;20158;-83
2020/12/05 00:16:59;;;;;;;;;;;;;;;-0.46;100.00;90556.84;1063309;56;20302;-83
2020/12/05 00:18:00;;;;;;;;;;;;;;;-0.47;100.00;90555.38;1065422;55;20971;-82
2020/12/05 00:19:00;;;;;;;;;;;;;;;-0.44;100.00;90554.53;1063299;56;20158;-82
2020/12/05 00:20:01;;;;;;;;;;;;;;;-0.39;100.00;90551.44;1063090;56;20251;-82
2020/12/05 00:21:01;;;;;;;;;;;;;;;-0.34;100.00;90548.34;1063161;56;20169;-84
2020/12/05 00:22:02;;;;;;;;;;;;;;;-0.24;100.00;90546.59;1061160;56;20650;-84
2020/12/05 00:23:02;;;;;;;;;;;;;;;-0.23;100.00;90548.06;1060996;56;20619;-84
2020/12/05 00:24:03;;;;;;;;;;;;;;;-0.36;100.00;90546.09;1063192;55;20184;-83
2020/12/05 00:25:03;;;;;;;;;;;;;;;-0.40;100.00;90542.09;1065287;55;20645;-83
2020/12/05 00:26:04;;;;;;;;;;;;;;;-0.44;100.00;90546.66;1063152;56;20177;-83
2020/12/05 00:27:04;;;;;;;;;;;;;;;-0.45;100.00;90559.06;1065312;55;20158;-86
2020/12/05 00:28:06;;;;;;;;;;;;;;;-0.46;100.00;90549.72;1065191;55;20724;-84
2020/12/05 00:29:06;;;;;;;;;;;;;;;-0.48;100.00;90553.88;1065190;55;20239;-84
2020/12/05 00:30:07;;;;;;;;;;;;;;;-0.52;100.00;90551.38;1065191;55;20181;-83
2020/12/05 00:31:08;;;;;;;;;;;;;;;-0.52;100.00;90546.84;1067390;55;20181;-84
2020/12/05 00:32:08;;;;;;;;;;;;;;;-0.53;100.00;90549.87;1065357;55;20274;-82
2020/12/05 00:33:09;;;;;;;;;;;;;;;-0.54;100.00;90540.53;1063137;56;20202;-83
2020/12/05 00:34:09;;;;;;;;;;;;;;;-0.52;100.00;90541.59;1065368;55;20188;-85
2020/12/05 00:35:10;;;;;;;;;;;;;;;-0.52;100.00;90535.63;1067454;55;20191;-83
2020/12/05 00:36:10;;;;;;;;;;;;;;;-0.48;100.00;90543.38;1063179;56;20255;-83
2020/12/05 00:37:11;;;;;;;;;;;;;;;-0.46;100.00;90541.09;1063134;56;20637;-86
2020/12/05 00:38:11;;;;;;;;;;;;;;;-0.51;100.00;90543.06;1063131;56;20154;-83
2020/12/05 00:39:12;;;;;;;;;;;;;;;-0.52;100.00;90538.97;1065397;55;20587;-83
2020/12/05 00:40:12;;;;;;;;;;;;;;;-0.53;100.00;90542.75;1065372;55;20177;-83
2020/12/05 00:41:16;;;;;;;;;;;;;;;-0.51;100.00;90542.34;1065342;55;20181;-84
2020/12/05 00:42:17;;;;;;;;;;;;;;;-0.51;100.00;90553.56;1061237;55;20162;-83
2020/12/05 00:43:17;;;;;;;;;;;;;;;-0.53;100.00;90555.13;1065254;55;20242;-83
2020/12/05 00:44:18;;;;;;;;;;;;;;;-0.53;100.00;90558.50;1065508;55;20310;-84
2020/12/05 00:45:19;;;;;;;;;;;;;;;-0.54;100.00;90566.75;1065636;55;20267;-83
2020/12/05 00:46:19;;;;;;;;;;;;;;;-0.55;100.00;90560.78;1067808;55;21098;-83
2020/12/05 00:47:20;;;;;;;;;;;;;;;-0.55;100.00;90566.03;1063657;55;20162;-83
2020/12/05 00:48:20;;;;;;;;;;;;;;;-0.48;100.00;90572.25;1061477;56;20259;-84
2020/12/05 00:49:21;;;;;;;;;;;;;;;-0.54;100.00;90577.25;1061154;56;20659;-85
2020/12/05 00:50:21;;;;;;;;;;;;;;;-0.51;100.00;90581.69;1063425;55;20267;-82
2020/12/05 00:51:22;;;;;;;;;;;;;;;-0.47;100.00;90579.00;1067772;55;20176;-84
2020/12/05 00:52:23;;;;;;;;;;;;;;;-0.47;100.00;90582.34;1067770;55;20168;-83
2020/12/05 00:53:24;;;;;;;;;;;;;;;-0.51;100.00;90586.94;1067735;55;20197;-82
2020/12/05 00:54:25;;;;;;;;;;;;;;;-0.51;100.00;90587.66;1065671;55;20153;-82
2020/12/05 00:55:25;;;;;;;;;;;;;;;-0.52;100.00;90588.81;1067624;55;20246;-84
2020/12/05 00:56:26;;;;;;;;;;;;;;;-0.53;100.00;90587.34;1065462;55;20172;-83
2020/12/05 00:57:27;;;;;;;;;;;;;;;-0.53;100.00;90584.72;1065525;55;20248;-82
2020/12/05 00:58:34;;;;;;;;;;;;;;;-0.46;100.00;90581.19;1067984;55;20987;-82
2020/12/05 00:59:34;;;;;;;;;;;;;;;-0.45;100.00;90584.56;1067594;55;20638;-84
2020/12/05 01:00:35;;;;;;;;;;;;;;;-0.49;100.00;90589.16;1067746;55;20173;-83
2020/12/05 01:01:35;;;;;;;;;;;;;;;-0.39;100.00;90590.81;1067619;55;20249;-83
2020/12/05 01:02:36;;;;;;;;;;;;;;;-0.30;100.00;90593.59;1067718;55;20184;-83
2020/12/05 01:03:36;;;;;;;;;;;;;;;-0.37;100.00;90599.00;1067549;55;20169;-82
2020/12/05 01:04:37;;;;;;;;;;;;;;;-0.42;100.00;90600.22;1065484;55;20161;-83
2020/12/05 01:05:37;;;;;;;;;;;;;;;-0.40;100.00;90603.16;1067787;55;20180;-83
2020/12/05 01:06:38;;;;;;;;;;;;;;;-0.40;100.00;90602.44;1065570;55;20603;-83
2020/12/05 01:07:38;;;;;;;;;;;;;;;-0.36;100.00;90600.47;1063424;55;20184;-83
2020/12/05 01:08:40;;;;;;;;;;;;;;;-0.36;100.00;90587.34;1063434;55;20619;-83
2020/12/05 01:09:41;;;;;;;;;;;;;;;-0.33;100.00;90582.03;1063436;55;20627;-83
2020/12/05 01:10:41;;;;;;;;;;;;;;;-0.30;100.00;90586.47;1063407;55;20158;-83
2020/12/05 01:11:44;;;;;;;;;;;;;;;-0.38;100.00;90579.16;1063388;55;20158;-83
2020/12/05 01:12:44;;;;;;;;;;;;;;;-0.40;100.00;90576.94;1063459;55;20253;-84
2020/12/05 01:13:45;;;;;;;;;;;;;;;-0.34;100.00;90577.19;1065579;55;20577;-84
2020/12/05 01:14:46;;;;;;;;;;;;;;;-0.31;100.00;90574.50;1065410;55;20630;-84
2020/12/05 01:15:46;;;;;;;;;;;;;;;-0.35;100.00;90580.94;1067542;55;20180;-84
2020/12/05 01:16:47;;;;;;;;;;;;;;;-0.38;100.00;90574.66;1067498;55;20184;-81
2020/12/05 01:17:47;;;;;;;;;;;;;;;-0.38;100.00;90579.16;1067817;55;20165;-83
2020/12/05 01:18:48;;;;;;;;;;;;;;;-0.31;100.00;90584.22;1063488;55;20196;-83
2020/12/05 01:19:52;;;;;;;;;;;;;;;-0.29;100.00;90587.94;1067865;55;20164;-83
2020/12/05 01:20:52;;;;;;;;;;;;;;;-0.40;100.00;90582.19;1069847;55;20618;-83
2020/12/05 01:21:53;;;;;;;;;;;;;;;-0.36;100.00;90593.34;1065520;55;20157;-83
2020/12/05 01:22:54;;;;;;;;;;;;;;;-0.33;100.00;90597.03;1067711;55;20258;-84
2020/12/05 01:23:55;;;;;;;;;;;;;;;-0.35;100.00;90596.69;1065579;55;20578;-83
2020/12/05 01:24:56;;;;;;;;;;;;;;;-0.35;100.00;90594.84;1065708;55;20161;-83
2020/12/05 01:25:56;;;;;;;;;;;;;;;-0.39;100.00;90604.66;1065518;55;20161;-83
2020/12/05 01:26:57;;;;;;;;;;;;;;;-0.40;100.00;90599.81;1063447;55;20263;-84
2020/12/05 01:27:57;;;;;;;;;;;;;;;-0.42;100.00;90602.84;1064323;55;20192;-83
2020/12/05 01:28:57;;;;;;;;;;;;;;;-0.41;100.00;90612.19;1063344;55;20198;-83
2020/12/05 01:29:58;;;;;;;;;;;;;;;-0.43;100.00;90617.13;1065640;55;21118;-82
2020/12/05 01:30:59;;;;;;;;;;;;;;;-0.39;100.00;90612.53;1065678;55;20184;-84
2020/12/05 01:31:59;;;;;;;;;;;;;;;-0.38;100.00;90618.53;1063500;55;20172;-86
2020/12/05 01:33:00;;;;;;;;;;;;;;;-0.41;100.00;90625.31;1065572;55;20172;-84
2020/12/05 01:34:02;;;;;;;;;;;;;;;-0.38;100.00;90626.41;1063455;55;20263;-84
2020/12/05 01:35:03;;;;;;;;;;;;;;;-0.41;100.00;90627.94;1061331;55;20163;-83
2020/12/05 01:36:05;;;;;;;;;;;;;;;-0.41;100.00;90635.81;1061187;55;21088;-83
2020/12/05 01:37:07;;;;;;;;;;;;;;;-0.45;100.00;90645.66;1062430;55;20319;-83
2020/12/05 01:38:09;;;;;;;;;;;;;;;-0.43;100.00;90651.25;1063533;55;20259;-83
2020/12/05 01:39:09;;;;;;;;;;;;;;;-0.46;100.00;90657.28;1063398;55;20651;-83
2020/12/05 01:40:11;;;;;;;;;;;;;;;-0.48;100.00;90664.06;1063534;55;20173;-83
2020/12/05 01:41:12;;;;;;;;;;;;;;;-0.45;100.00;90666.63;1067626;55;20266;-83
2020/12/05 01:42:12;;;;;;;;;;;;;;;-0.46;100.00;90670.41;1063348;55;20162;-84
2020/12/05 01:43:13;;;;;;;;;;;;;;;-0.41;100.00;90674.44;1061257;56;20801;-83
2020/12/05 01:44:14;;;;;;;;;;;;;;;-0.42;100.00;90671.06;1063340;55;20153;-84
2020/12/05 01:45:14;;;;;;;;;;;;;;;-0.38;100.00;90673.63;1065623;55;20188;-84
2020/12/05 01:46:39;;;;;;;;;;;;;;;-0.36;100.00;90676.56;1067672;55;20233;-83
2020/12/05 01:47:40;;;;;;;;;;;;;;;-0.35;100.00;90683.28;1062634;55;21177;-82
2020/12/05 01:48:40;;;;;;;;;;;;;;;-0.37;100.00;90675.84;1065531;55;20166;-83
2020/12/05 01:49:41;;;;;;;;;;;;;;;-0.38;100.00;90681.50;1067780;55;20161;-83
2020/12/05 01:50:43;;;;;;;;;;;;;;;-0.36;100.00;90689.69;1063523;55;20201;-82
2020/12/05 01:51:44;;;;;;;;;;;;;;;-0.39;100.00;90680.03;1063379;55;20158;-86
2020/12/05 01:52:46;;;;;;;;;;;;;;;-0.40;100.00;90687.13;1061230;55;20211;-84
2020/12/05 01:53:46;;;;;;;;;;;;;;;-0.28;100.00;90685.78;1061226;55;20193;-82
2020/12/05 01:54:47;;;;;;;;;;;;;;;-0.34;100.00;90688.16;1063279;55;20189;-83
2020/12/05 01:55:48;;;;;;;;;;;;;;;-0.36;100.00;90689.69;1063094;55;20990;-82
2020/12/05 01:56:55;;;;;;;;;;;;;;;-0.28;100.00;90696.28;1063547;55;20212;-87
2020/12/05 01:57:56;;;;;;;;;;;;;;;-0.33;100.00;90694.13;1064298;55;20157;-83
2020/12/05 01:58:56;;;;;;;;;;;;;;;-0.36;100.00;90705.44;1063182;55;20189;-84
2020/12/05 01:59:57;;;;;;;;;;;;;;;-0.33;100.00;90709.87;1065623;55;20680;-84
2020/12/05 02:00:59;;;;;;;;;;;;;;;-0.32;100.00;90709.47;1067763;55;20273;-84
2020/12/05 02:02:03;;;;;;;;;;;;;;;-0.36;100.00;90713.31;1063500;55;20170;-83
2020/12/05 02:03:05;;;;;;;;;;;;;;;-0.42;100.00;90714.94;1063683;55;20188;-84
2020/12/05 02:04:07;;;;;;;;;;;;;;;-0.43;100.00;90710.84;1065502;55;20150;-83
2020/12/05 02:05:16;;;;;;;;;;;;;;;-0.46;100.00;90722.16;1065501;55;20683;-84
2020/12/05 02:06:35;;;;;;;;;;;;;;;-0.41;100.00;90703.31;1067998;55;20257;-83
2020/12/05 02:07:45;;;;;;;;;;;;;;;-0.45;100.00;90694.75;1065647;55;20154;-84
2020/12/05 02:09:04;;;;;;;;;;;;;;;-0.41;100.00;90716.41;1066111;55;20157;-85
2020/12/05 02:10:09;;;;;;;;;;;;;;;-0.40;100.00;90716.00;1065481;55;20629;-83
2020/12/05 02:11:13;;;;;;;;;;;;;;;-0.43;100.00;90724.72;1063471;55;20645;-82
2020/12/05 02:12:14;;;;;;;;;;;;;;;-0.45;100.00;90718.37;1065890;55;20335;-84
2020/12/05 02:13:24;;;;;;;;;;;;;;;-0.41;100.00;90721.66;1065613;55;20254;-84
2020/12/05 02:14:27;;;;;;;;;;;;;;;-0.36;100.00;90721.19;1065902;55;20150;-83
2020/12/05 02:15:28;;;;;;;;;;;;;;;-0.41;100.00;90726.91;1065644;55;20189;-83
2020/12/05 02:16:30;;;;;;;;;;;;;;;-0.32;100.00;90721.84;1065436;55;20161;-83
2020/12/05 02:17:39;;;;;;;;;;;;;;;-0.34;100.00;90717.03;1063722;55;20739;-84
2020/12/05 02:18:40;;;;;;;;;;;;;;;-0.40;100.00;90721.25;1063708;55;20165;-83
2020/12/05 02:19:49;;;;;;;;;;;;;;;-0.42;100.00;90730.69;1063550;55;20249;-84
2020/12/05 02:20:51;;;;;;;;;;;;;;;-0.42;100.00;90735.94;1063775;55;20166;-82
2020/12/05 02:21:54;;;;;;;;;;;;;;;-0.43;100.00;90744.97;1061366;55;20154;-84
2020/12/05 02:22:55;;;;;;;;;;;;;;;-0.43;100.00;90755.47;1061435;55;20571;-85
2020/12/05 02:24:00;;;;;;;;;;;;;;;-0.49;100.00;90765.66;1065521;55;20593;-84
2020/12/05 02:25:01;;;;;;;;;;;;;;;-0.42;100.00;90767.44;1065729;55;20746;-83
2020/12/05 02:26:06;;;;;;;;;;;;;;;-0.44;100.00;90777.56;1065465;55;20153;-82
2020/12/05 02:27:07;;;;;;;;;;;;;;;-0.46;100.00;90777.25;1063506;55;20605;-83
2020/12/05 02:28:11;;;;;;;;;;;;;;;-0.44;100.00;90790.69;1063541;55;20182;-84
2020/12/05 02:29:13;;;;;;;;;;;;;;;-0.45;100.00;90787.34;1065575;55;20210;-82
2020/12/05 02:30:13;;;;;;;;;;;;;;;-0.46;100.00;90790.38;1065538;55;20170;-82
2020/12/05 02:31:14;;;;;;;;;;;;;;;-0.48;100.00;90792.66;1067671;55;20258;-84
2020/12/05 02:32:15;;;;;;;;;;;;;;;-0.35;100.00;90793.53;1067697;55;20635;-83
2020/12/05 02:33:16;;;;;;;;;;;;;;;-0.35;100.00;90789.03;1067699;55;20157;-83
2020/12/05 02:34:16;;;;;;;;;;;;;;;-0.36;100.00;90792.78;1067574;55;20309;-85
2020/12/05 02:35:19;;;;;;;;;;;;;;;-0.33;100.00;90796.50;1065651;55;20224;-83
2020/12/05 02:36:20;;;;;;;;;;;;;;;-0.31;100.00;90805.47;1065626;55;20154;-82
2020/12/05 02:37:22;;;;;;;;;;;;;;;-0.33;100.00;90801.75;1065477;55;20582;-85
2020/12/05 02:38:41;;;;;;;;;;;;;;;-0.39;100.00;90814.59;1067538;55;20273;-83
2020/12/05 02:39:42;;;;;;;;;;;;;;;-0.40;100.00;90820.22;1063880;55;20162;-84
2020/12/05 02:40:44;;;;;;;;;;;;;;;-0.35;100.00;90823.16;1063329;55;20598;-83
2020/12/05 02:41:46;;;;;;;;;;;;;;;-0.40;100.00;90828.84;1063406;55;20189;-84
2020/12/05 02:42:46;;;;;;;;;;;;;;;-0.40;100.00;90835.97;1063272;55;20184;-84
2020/12/05 02:43:48;;;;;;;;;;;;;;;-0.40;100.00;90831.47;1065465;55;20169;-83
2020/12/05 02:44:50;;;;;;;;;;;;;;;-0.34;100.00;90829.13;1065511;55;20185;-83
2020/12/05 02:45:52;;;;;;;;;;;;;;;-0.29;100.00;90828.66;1063424;55;20228;-83
2020/12/05 02:46:55;;;;;;;;;;;;;;;-0.32;100.00;90829.47;1067568;55;20229;-82
2020/12/05 02:47:55;;;;;;;;;;;;;;;-0.28;100.00;90824.87;1067615;55;20191;-82
2020/12/05 02:48:55;;;;;;;;;;;;;;;-0.31;100.00;90823.06;1067476;55;20191;-83
2020/12/05 02:49:56;;;;;;;;;;;;;;;-0.29;100.00;90810.28;1067637;55;20161;-83
2020/12/05 02:50:57;;;;;;;;;;;;;;;-0.28;100.00;90817.00;1067560;55;20558;-83
2020/12/05 02:51:57;;;;;;;;;;;;;;;-0.32;100.00;90818.97;1069784;55;20184;-84
2020/12/05 02:52:58;;;;;;;;;;;;;;;-0.33;100.00;90826.09;1067641;55;20712;-82
2020/12/05 02:53:59;;;;;;;;;;;;;;;-0.37;100.00;90832.56;1065468;55;20185;-86
2020/12/05 02:54:59;;;;;;;;;;;;;;;-0.35;100.00;90840.75;1065518;55;20157;-84
2020/12/05 02:56:00;;;;;;;;;;;;;;;-0.39;100.00;90838.22;1063311;55;20181;-82
2020/12/05 02:57:00;;;;;;;;;;;;;;;-0.36;100.00;90824.28;1063244;55;20645;-83
2020/12/05 02:58:01;;;;;;;;;;;;;;;-0.31;100.00;90823.81;1063318;55;20263;-83
2020/12/05 02:59:03;;;;;;;;;;;;;;;-0.33;100.00;90809.63;1061195;56;20610;-84
2020/12/05 03:00:04;;;;;;;;;;;;;;;-0.36;100.00;90811.16;1065347;55;20618;-82
2020/12/05 03:01:04;;;;;;;;;;;;;;;-0.24;100.00;90814.31;1065490;55;20158;-83
2020/12/05 03:02:05;;;;;;;;;;;;;;;-0.24;100.00;90822.19;1063374;55;20161;-83
2020/12/05 03:03:05;;;;;;;;;;;;;;;-0.28;100.00;90824.87;1065427;55;20165;-84
2020/12/05 03:04:06;;;;;;;;;;;;;;;-0.31;100.00;90820.44;1067532;55;20181;-83
2020/12/05 03:05:07;;;;;;;;;;;;;;;-0.34;100.00;90816.75;1065492;55;20641;-83
2020/12/05 03:06:08;;;;;;;;;;;;;;;-0.37;100.00;90809.69;1063476;55;20166;-82
2020/12/05 03:07:09;;;;;;;;;;;;;;;-0.36;100.00;90808.53;1063393;55;20173;-82
2020/12/05 03:08:11;;;;;;;;;;;;;;;-0.38;100.00;90820.59;1063469;55;20561;-83
2020/12/05 03:09:12;;;;;;;;;;;;;;;-0.37;100.00;90829.94;1065535;55;20162;-84
2020/12/05 03:10:14;;;;;;;;;;;;;;;-0.34;100.00;90839.63;1065465;55;20158;-85
2020/12/05 03:11:14;;;;;;;;;;;;;;;-0.26;100.00;90835.75;1063296;55;20248;-85
2020/12/05 03:12:15;;;;;;;;;;;;;;;-0.28;100.00;90838.75;1063294;55;20570;-87
2020/12/05 03:13:17;;;;;;;;;;;;;;;-0.33;100.00;90854.22;1063698;55;20608;-84
2020/12/05 03:14:18;;;;;;;;;;;;;;;-0.38;100.00;90859.94;1063416;55;20188;-82
2020/12/05 03:15:18;;;;;;;;;;;;;;;-0.34;100.00;90860.63;1065520;55;20176;-84
2020/12/05 03:16:19;;;;;;;;;;;;;;;-0.39;100.00;90867.09;1067764;55;20176;-83
2020/12/05 03:17:20;;;;;;;;;;;;;;;-0.37;100.00;90866.69;1065247;55;20165;-84
2020/12/05 03:18:20;;;;;;;;;;;;;;;-0.39;100.00;90861.09;1065589;55;20181;-83
2020/12/05 03:19:21;;;;;;;;;;;;;;;-0.39;100.00;90864.47;1065522;55;20168;-84
2020/12/05 03:20:21;;;;;;;;;;;;;;;-0.38;100.00;90863.31;1063353;55;20158;-84
2020/12/05 03:21:22;;;;;;;;;;;;;;;-0.42;100.00;90865.25;1067660;55;20176;-82
2020/12/05 03:22:23;;;;;;;;;;;;;;;-0.45;100.00;90863.44;1065457;55;20185;-84
2020/12/05 03:23:23;;;;;;;;;;;;;;;-0.43;100.00;90871.66;1063290;55;20744;-83
2020/12/05 03:24:24;;;;;;;;;;;;;;;-0.39;100.00;90871.59;1063300;55;20181;-87
2020/12/05 03:25:24;;;;;;;;;;;;;;;-0.41;100.00;90866.00;1065512;55;20656;-83
2020/12/05 03:26:26;;;;;;;;;;;;;;;-0.38;100.00;90860.69;1067628;55;20246;-83
2020/12/05 03:27:27;;;;;;;;;;;;;;;-0.40;100.00;90859.59;1065521;55;20254;-84
2020/12/05 03:28:28;;;;;;;;;;;;;;;-0.42;100.00;90854.75;1065522;55;20229;-83
2020/12/05 03:29:28;;;;;;;;;;;;;;;-0.44;100.00;90851.03;1065303;55;20605;-83
2020/12/05 03:30:29;;;;;;;;;;;;;;;-0.35;100.00;90846.00;1065492;55;20258;-83
2020/12/05 03:33:02;;;;;;;;;;;;;;;-0.43;100.00;90847.31;1061949;56;20163;-84
2020/12/05 03:34:05;;;;;;;;;;;;;;;-0.41;100.00;90839.75;1063962;55;20590;-85
2020/12/05 03:35:05;;;;;;;;;;;;;;;-0.45;100.00;90833.81;1065424;55;20192;-83
2020/12/05 03:36:06;;;;;;;;;;;;;;;-0.44;100.00;90837.94;1067533;55;20664;-85
2020/12/05 03:37:06;;;;;;;;;;;;;;;-0.48;100.00;90837.25;1065348;55;20173;-83
2020/12/05 03:38:07;;;;;;;;;;;;;;;-0.48;100.00;90838.00;1063215;55;20185;-83
2020/12/05 03:39:07;;;;;;;;;;;;;;;-0.35;100.00;90836.28;1067563;55;20145;-83
2020/12/05 03:40:08;;;;;;;;;;;;;;;-0.37;100.00;90840.44;1067498;55;20247;-83
2020/12/05 03:41:08;;;;;;;;;;;;;;;-0.37;100.00;90841.16;1063272;55;20193;-84
2020/12/05 03:42:09;;;;;;;;;;;;;;;-0.38;100.00;90837.06;1065342;55;20177;-83
2020/12/05 03:43:09;;;;;;;;;;;;;;;-0.41;100.00;90837.13;1067596;55;20180;-82
2020/12/05 03:44:10;;;;;;;;;;;;;;;-0.53;100.00;90839.22;1063224;55;20670;-82
2020/12/05 03:45:11;;;;;;;;;;;;;;;-0.49;100.00;90847.00;1061122;56;20181;-83
2020/12/05 03:46:11;;;;;;;;;;;;;;;-0.57;100.00;90853.50;1063215;55;20196;-83
2020/12/05 03:47:12;;;;;;;;;;;;;;;-0.59;100.00;90861.78;1065560;55;20157;-83
2020/12/05 03:48:13;;;;;;;;;;;;;;;-0.62;100.00;90878.31;1063237;55;20267;-84
2020/12/05 03:49:14;;;;;;;;;;;;;;;-0.64;100.00;90878.00;1061125;56;20694;-83
2020/12/05 03:50:14;;;;;;;;;;;;;;;-0.67;100.00;90862.31;1065404;55;20210;-83
2020/12/05 03:51:15;;;;;;;;;;;;;;;-0.64;100.00;90859.63;1067480;55;20748;-84
2020/12/05 03:52:15;;;;;;;;;;;;;;;-0.61;100.00;90853.59;1063230;55;20642;-83
2020/12/05 03:53:16;;;;;;;;;;;;;;;-0.62;100.00;90846.09;1063253;55;20181;-82
2020/12/05 03:54:17;;;;;;;;;;;;;;;-0.62;100.00;90846.84;1063138;55;20166;-84
2020/12/05 03:55:17;;;;;;;;;;;;;;;-0.62;100.00;90843.50;1061042;56;20275;-83
2020/12/05 03:56:18;;;;;;;;;;;;;;;-0.55;100.00;90841.50;1063346;55;20316;-83
2020/12/05 03:57:18;;;;;;;;;;;;;;;-0.44;100.00;90851.03;1065380;55;20189;-84
2020/12/05 03:58:19;;;;;;;;;;;;;;;-0.54;100.00;90850.84;1065423;55;20633;-83
2020/12/05 03:59:20;;;;;;;;;;;;;;;-0.59;100.00;90856.56;1065372;55;20648;-83
2020/12/05 04:00:20;;;;;;;;;;;;;;;-0.66;100.00;90859.31;1065442;55;20189;-84
2020/12/05 04:01:22;;;;;;;;;;;;;;;-0.66;100.00;90855.91;1063355;55;20166;-83
2020/12/05 04:02:22;;;;;;;;;;;;;;;-0.68;100.00;90853.72;1065096;55;20184;-83
2020/12/05 04:03:23;;;;;;;;;;;;;;;-0.69;100.00;90867.97;1063308;55;20189;-83
2020/12/05 04:04:23;;;;;;;;;;;;;;;-0.68;100.00;90871.34;1063304;55;20598;-84
2020/12/05 04:05:25;;;;;;;;;;;;;;;-0.68;100.00;90881.81;1061214;55;20590;-85
2020/12/05 04:06:26;;;;;;;;;;;;;;;-0.68;100.00;90887.06;1063298;55;20181;-84
2020/12/05 04:07:26;;;;;;;;;;;;;;;-0.80;100.00;90891.00;1065426;55;20248;-84
2020/12/05 04:08:27;;;;;;;;;;;;;;;-0.76;100.00;90891.69;1063135;56;20173;-84
2020/12/05 04:09:28;;;;;;;;;;;;;;;-0.79;100.00;90892.47;1063056;55;20170;-83
2020/12/05 04:10:28;;;;;;;;;;;;;;;-0.78;100.00;90896.59;1063307;56;20194;-83
2020/12/05 04:11:29;;;;;;;;;;;;;;;-0.76;100.00;90878.56;1061201;56;20185;-83
2020/12/05 04:12:29;;;;;;;;;;;;;;;-0.76;100.00;90881.94;1063336;55;20192;-83
2020/12/05 04:13:30;;;;;;;;;;;;;;;-0.72;100.00;90883.75;1063241;55;20193;-83
2020/12/05 04:14:30;;;;;;;;;;;;;;;-0.74;100.00;90881.56;1063310;56;20181;-84
2020/12/05 04:15:31;;;;;;;;;;;;;;;-0.80;100.00;90878.63;1063196;56;20185;-83
2020/12/05 04:16:31;;;;;;;;;;;;;;;-0.83;100.00;90881.31;1067475;55;21008;-84
2020/12/05 04:17:32;;;;;;;;;;;;;;;-0.81;100.00;90873.78;1069547;55;20160;-82
2020/12/05 04:18:33;;;;;;;;;;;;;;;-0.82;100.00;90880.19;1065399;55;20162;-82
2020/12/05 04:19:33;;;;;;;;;;;;;;;-0.82;100.00;90869.69;1065740;55;20585;-88
2020/12/05 04:20:34;;;;;;;;;;;;;;;-0.81;100.00;90873.78;1063584;55;20194;-83
2020/12/05 04:21:34;;;;;;;;;;;;;;;-0.79;100.00;90871.50;1063629;55;20154;-83
2020/12/05 04:22:35;;;;;;;;;;;;;;;-0.73;100.00;90872.53;1067916;55;20666;-83
2020/12/05 04:23:35;;;;;;;;;;;;;;;-0.74;100.00;90875.56;1067846;55;20188;-82
2020/12/05 04:24:36;;;;;;;;;;;;;;;-0.83;100.00;90876.81;1063564;55;20161;-83
2020/12/05 04:25:36;;;;;;;;;;;;;;;-0.95;100.00;90895.72;1067832;55;20161;-84
2020/12/05 04:26:37;;;;;;;;;;;;;;;-0.95;100.00;90908.09;1065670;55;20723;-83
2020/12/05 04:27:38;;;;;;;;;;;;;;;-1.00;100.00;90903.31;1063536;55;20212;-83
2020/12/05 04:28:38;;;;;;;;;;;;;;;-0.98;100.00;90912.25;1061326;56;20166;-83
2020/12/05 04:29:39;;;;;;;;;;;;;;;-0.98;100.00;90914.88;1065760;55;20185;-83
2020/12/05 04:30:40;;;;;;;;;;;;;;;-1.00;100.00;90922.41;1065654;55;20188;-83
2020/12/05 04:31:41;;;;;;;;;;;;;;;-0.98;100.00;90935.09;1065877;55;20177;-83
2020/12/05 04:32:41;;;;;;;;;;;;;;;-0.99;100.00;90944.84;1065731;55;20198;-83
2020/12/05 04:33:42;;;;;;;;;;;;;;;-0.97;100.00;90962.81;1063470;55;20641;-83
2020/12/05 04:34:42;;;;;;;;;;;;;;;-1.00;100.00;90966.22;1065761;55;20177;-83
2020/12/05 04:35:43;;;;;;;;;;;;;;;-0.96;100.00;90974.78;1063542;55;20154;-84
2020/12/05 04:36:43;;;;;;;;;;;;;;;-0.93;100.00;90982.59;1063443;55;20192;-83
2020/12/05 04:37:44;;;;;;;;;;;;;;;-0.92;100.00;90983.31;1065632;55;20196;-83
2020/12/05 04:38:44;;;;;;;;;;;;;;;-0.91;100.00;90976.97;1067761;55;20161;-83
2020/12/05 04:39:45;;;;;;;;;;;;;;;-0.94;100.00;90980.38;1067839;55;20589;-83
2020/12/05 04:40:46;;;;;;;;;;;;;;;-0.93;100.00;90993.06;1065760;55;20246;-83
2020/12/05 04:41:47;;;;;;;;;;;;;;;-0.92;100.00;91005.06;1065795;55;20165;-82
2020/12/05 04:42:48;;;;;;;;;;;;;;;-0.91;100.00;91013.69;1065743;55;20177;-84
2020/12/05 04:43:48;;;;;;;;;;;;;;;-0.90;100.00;91020.41;1065733;55;20614;-84
2020/12/05 04:44:51;;;;;;;;;;;;;;;-0.91;100.00;91014.41;1065655;55;20221;-84
2020/12/05 04:45:52;;;;;;;;;;;;;;;-0.88;100.00;91018.09;1065630;55;20165;-83
2020/12/05 04:46:53;;;;;;;;;;;;;;;-0.89;100.00;91025.25;1065749;55;20601;-84
2020/12/05 04:47:54;;;;;;;;;;;;;;;-0.92;100.00;91023.41;1067960;55;20157;-82
2020/12/05 04:48:56;;;;;;;;;;;;;;;-0.91;100.00;91018.91;1067764;55;21072;-84
2020/12/05 04:49:57;;;;;;;;;;;;;;;-0.85;100.00;91033.81;1063596;55;20614;-83
2020/12/05 04:51:00;;;;;;;;;;;;;;;-0.88;100.00;91031.22;1067742;55;20176;-84
2020/12/05 04:52:13;;;;;;;;;;;;;;;-0.92;100.00;91036.53;1067738;55;20156;-85
2020/12/05 04:53:21;;;;;;;;;;;;;;;-0.90;100.00;91031.63;1065984;55;20157;-83
2020/12/05 04:54:24;;;;;;;;;;;;;;;-0.86;100.00;91031.59;1067836;55;20165;-84
2020/12/05 04:55:28;;;;;;;;;;;;;;;-0.92;100.00;91031.28;1067822;55;20239;-83
2020/12/05 04:56:34;;;;;;;;;;;;;;;-0.99;100.00;91038.50;1065792;55;20646;-84
2020/12/05 04:57:38;;;;;;;;;;;;;;;-1.06;100.00;91031.44;1067509;55;20609;-83
2020/12/05 04:58:40;;;;;;;;;;;;;;;-1.00;100.00;91029.16;1065763;55;20185;-83
2020/12/05 04:59:41;;;;;;;;;;;;;;;-0.96;100.00;91035.84;1063427;55;20657;-82
2020/12/05 05:00:42;;;;;;;;;;;;;;;-0.88;100.00;91044.34;1063482;55;20153;-83
2020/12/05 05:01:43;;;;;;;;;;;;;;;-0.89;100.00;91055.97;1063567;55;20367;-82
2020/12/05 05:02:45;;;;;;;;;;;;;;;-0.85;100.00;91054.03;1065548;55;20161;-83
2020/12/05 05:03:45;;;;;;;;;;;;;;;-0.80;100.00;91049.09;1063810;55;20818;-84
2020/12/05 05:04:47;;;;;;;;;;;;;;;-0.81;100.00;91044.25;1067710;55;20192;-83
2020/12/05 05:05:49;;;;;;;;;;;;;;;-0.73;100.00;91047.53;1065583;55;20165;-85
2020/12/05 05:06:49;;;;;;;;;;;;;;;-0.77;100.00;91043.06;1065560;55;20200;-83
2020/12/05 05:07:51;;;;;;;;;;;;;;;-0.74;100.00;91049.41;1061300;56;20185;-82
2020/12/05 05:08:51;;;;;;;;;;;;;;;-0.62;100.00;91035.72;1063527;55;20155;-83
2020/12/05 05:10:13;;;;;;;;;;;;;;;-0.67;100.00;91038.81;1063490;55;20263;-83
2020/12/05 05:11:15;;;;;;;;;;;;;;;-0.61;100.00;91039.13;1064328;55;20176;-83
2020/12/05 05:12:30;;;;;;;;;;;;;;;-0.63;100.00;91055.25;1061390;55;20234;-85
2020/12/05 05:13:30;;;;;;;;;;;;;;;-0.65;100.00;91044.41;1062434;55;20162;-84
2020/12/05 05:14:32;;;;;;;;;;;;;;;-0.64;100.00;91045.16;1063587;55;20609;-84
2020/12/05 05:15:32;;;;;;;;;;;;;;;-0.60;100.00;91051.09;1065683;55;20197;-83
2020/12/05 05:16:33;;;;;;;;;;;;;;;-0.55;100.00;91059.25;1063561;55;20170;-86
2020/12/05 05:17:33;;;;;;;;;;;;;;;-0.66;100.00;91053.44;1063343;55;20188;-85